createdAt,value
2018-08-24T00:00:16.991Z,20.90
2018-08-24T00:02:47.591Z,20.90
2018-08-24T00:05:16.537Z,20.90
2018-08-24T00:07:45.529Z,20.80
2018-08-24T00:10:14.563Z,20.80
2018-08-24T00:12:43.516Z,20.80
2018-08-24T00:15:12.377Z,20.80
2018-08-24T00:17:45.552Z,20.70
2018-08-24T00:20:14.370Z,20.70
2018-08-24T00:22:43.615Z,20.70
2018-08-24T00:25:12.495Z,20.60
2018-08-24T00:27:41.384Z,20.60
2018-08-24T00:30:10.453Z,20.60
2018-08-24T00:32:39.294Z,20.60
2018-08-24T00:35:08.196Z,20.50
2018-08-24T00:37:37.388Z,20.50
2018-08-24T00:40:06.545Z,20.50
2018-08-24T00:42:35.567Z,20.50
2018-08-24T00:45:06.196Z,20.40
2018-08-24T00:47:35.154Z,20.40
2018-08-24T00:50:04.098Z,20.40
2018-08-24T00:52:33.125Z,20.30
2018-08-24T00:55:01.963Z,20.30
2018-08-24T00:57:30.997Z,20.30
2018-08-24T01:00:00.165Z,20.30
2018-08-24T01:02:29.020Z,20.30
2018-08-24T01:04:57.852Z,20.30
2018-08-24T01:07:26.814Z,20.30
2018-08-24T01:09:55.773Z,20.20
2018-08-24T01:12:24.625Z,20.20
2018-08-24T01:14:53.491Z,20.20
2018-08-24T01:17:27.597Z,20.10
2018-08-24T01:19:56.441Z,20.10
2018-08-24T01:22:25.320Z,20.10
2018-08-24T01:24:54.151Z,20.00
2018-08-24T01:27:23.088Z,20.00
2018-08-24T01:29:51.946Z,19.90
2018-08-24T01:32:20.752Z,19.80
2018-08-24T01:34:49.756Z,19.80
2018-08-24T01:37:18.688Z,19.70
2018-08-24T01:39:47.570Z,19.60
2018-08-24T01:42:16.373Z,19.60
2018-08-24T01:44:45.247Z,19.30
2018-08-24T01:47:14.046Z,19.00
2018-08-24T01:49:43.070Z,18.90
2018-08-24T01:52:11.937Z,18.70
2018-08-24T01:54:40.747Z,18.60
2018-08-24T01:57:09.609Z,18.50
2018-08-24T01:59:38.513Z,18.40
2018-08-24T02:02:07.937Z,18.30
2018-08-24T02:04:36.818Z,18.20
2018-08-24T02:07:05.645Z,18.10
2018-08-24T02:09:34.497Z,18.00
2018-08-24T02:12:03.542Z,18.00
2018-08-24T02:14:37.752Z,17.80
2018-08-24T02:17:10.730Z,17.80
2018-08-24T02:19:44.890Z,17.80
2018-08-24T02:22:17.784Z,17.80
2018-08-24T02:24:46.652Z,17.80
2018-08-24T02:27:15.472Z,17.70
2018-08-24T02:29:44.412Z,17.70
2018-08-24T02:32:13.207Z,17.70
2018-08-24T02:34:42.055Z,17.70
2018-08-24T02:37:11.020Z,17.70
2018-08-24T02:39:39.876Z,17.70
2018-08-24T02:42:08.707Z,17.70
2018-08-24T02:44:37.694Z,17.60
2018-08-24T02:47:06.511Z,17.60
2018-08-24T02:49:35.353Z,17.60
2018-08-24T02:52:04.367Z,17.60
2018-08-24T02:54:33.186Z,17.50
2018-08-24T02:57:02.151Z,17.50
2018-08-24T02:59:31.000Z,17.50
2018-08-24T03:02:00.793Z,17.40
2018-08-24T03:04:29.886Z,17.40
2018-08-24T03:06:58.742Z,17.30
2018-08-24T03:09:27.649Z,17.30
2018-08-24T03:11:56.624Z,17.20
2018-08-24T03:14:25.597Z,17.20
2018-08-24T03:17:00.063Z,17.20
2018-08-24T03:19:28.882Z,17.30
2018-08-24T03:21:57.755Z,17.30
2018-08-24T03:24:26.754Z,17.30
2018-08-24T03:26:55.827Z,17.30
2018-08-24T03:29:24.712Z,17.30
2018-08-24T03:31:53.690Z,17.30
2018-08-24T03:34:22.524Z,17.30
2018-08-24T03:36:51.397Z,17.30
2018-08-24T03:39:20.230Z,17.30
2018-08-24T03:41:49.155Z,17.30
2018-08-24T03:44:18.005Z,17.30
2018-08-24T03:46:46.866Z,17.30
2018-08-24T03:49:15.795Z,17.30
2018-08-24T03:51:44.669Z,17.30
2018-08-24T03:54:14.271Z,17.30
2018-08-24T03:56:44.556Z,17.20
2018-08-24T03:59:13.450Z,17.10
2018-08-24T04:01:42.533Z,17.10
2018-08-24T04:04:11.664Z,17.10
2018-08-24T04:06:40.547Z,17.10
2018-08-24T04:09:09.468Z,17.10
2018-08-24T04:11:39.447Z,17.10
2018-08-24T04:14:08.301Z,17.10
2018-08-24T04:16:42.558Z,17.10
2018-08-24T04:19:30.894Z,17.10
2018-08-24T04:22:00.072Z,17.10
2018-08-24T04:24:28.917Z,17.10
2018-08-24T04:26:58.108Z,17.10
2018-08-24T04:29:27.125Z,17.10
2018-08-24T04:31:56.011Z,17.10
2018-08-24T04:34:24.974Z,17.10
2018-08-24T04:36:54.023Z,17.10
2018-08-24T04:39:22.870Z,17.10
2018-08-24T04:41:51.772Z,17.10
2018-08-24T04:44:20.573Z,17.20
2018-08-24T04:46:49.507Z,17.20
2018-08-24T04:49:18.368Z,17.20
2018-08-24T04:51:47.508Z,17.20
2018-08-24T04:54:16.685Z,17.30
2018-08-24T04:56:46.358Z,17.30
2018-08-24T04:59:15.429Z,17.30
2018-08-24T05:01:45.449Z,17.30
2018-08-24T05:04:15.316Z,17.30
2018-08-24T05:06:44.613Z,17.30
2018-08-24T05:09:13.788Z,17.30
2018-08-24T05:11:43.128Z,17.30
2018-08-24T05:14:12.279Z,17.30
2018-08-24T05:16:41.722Z,17.30
2018-08-24T05:19:11.100Z,17.30
2018-08-24T05:21:40.134Z,17.30
2018-08-24T05:24:09.062Z,17.40
2018-08-24T05:26:38.001Z,17.40
2018-08-24T05:29:07.140Z,17.40
2018-08-24T05:31:36.188Z,17.40
2018-08-24T05:34:05.286Z,17.40
2018-08-24T05:36:34.363Z,17.30
2018-08-24T05:39:04.644Z,17.30
2018-08-24T05:41:33.637Z,17.40
2018-08-24T05:44:02.720Z,17.40
2018-08-24T05:46:31.783Z,17.40
2018-08-24T05:49:00.654Z,17.40
2018-08-24T05:51:29.811Z,17.50
2018-08-24T05:53:58.694Z,17.40
2018-08-24T05:56:27.549Z,17.40
2018-08-24T05:58:56.561Z,17.50
2018-08-24T06:01:25.471Z,17.50
2018-08-24T06:03:54.384Z,17.60
2018-08-24T06:06:24.457Z,17.60
2018-08-24T06:08:58.534Z,17.60
2018-08-24T06:11:27.424Z,17.60
2018-08-24T06:13:56.373Z,17.70
2018-08-24T06:16:25.302Z,17.70
2018-08-24T06:18:54.388Z,17.70
2018-08-24T06:21:23.758Z,17.70
2018-08-24T06:23:52.643Z,17.80
2018-08-24T06:26:21.533Z,17.70
2018-08-24T06:28:51.020Z,17.70
2018-08-24T06:31:19.968Z,17.80
2018-08-24T06:33:49.360Z,17.90
2018-08-24T06:36:18.434Z,18.00
2018-08-24T06:38:47.407Z,18.10
2018-08-24T06:41:16.271Z,18.20
2018-08-24T06:43:45.253Z,18.20
2018-08-24T06:46:14.461Z,18.30
2018-08-24T06:48:43.394Z,18.40
2018-08-24T06:51:12.605Z,18.40
2018-08-24T06:53:42.474Z,18.40
2018-08-24T06:56:11.814Z,18.50
2018-08-24T06:58:41.570Z,18.60
2018-08-24T07:01:11.155Z,18.70
2018-08-24T07:03:40.665Z,18.80
2018-08-24T07:06:09.921Z,18.90
2018-08-24T07:08:39.054Z,19.00
2018-08-24T07:11:08.789Z,19.10
2018-08-24T07:13:38.721Z,19.00
2018-08-24T07:16:08.210Z,19.00
2018-08-24T07:18:37.879Z,19.00
2018-08-24T07:21:07.281Z,19.00
2018-08-24T07:23:37.365Z,19.10
2018-08-24T07:26:07.277Z,19.20
2018-08-24T07:28:36.754Z,19.30
2018-08-24T07:31:05.963Z,19.40
2018-08-24T07:33:35.407Z,19.50
2018-08-24T07:36:05.661Z,19.50
2018-08-24T07:38:36.852Z,19.40
2018-08-24T07:41:06.183Z,19.40
2018-08-24T07:43:36.540Z,19.30
2018-08-24T07:46:07.675Z,19.20
2018-08-24T07:48:37.610Z,19.10
2018-08-24T07:51:08.375Z,19.10
2018-08-24T07:53:37.319Z,19.10
2018-08-24T07:56:06.871Z,19.10
2018-08-24T07:58:35.738Z,19.10
2018-08-24T08:01:04.897Z,19.10
2018-08-24T08:03:33.867Z,19.10
2018-08-24T08:06:02.912Z,19.10
2018-08-24T08:08:32.032Z,19.20
2018-08-24T08:11:00.939Z,19.20
2018-08-24T08:13:29.943Z,19.30
2018-08-24T08:15:59.876Z,19.30
2018-08-24T08:18:28.939Z,19.40
2018-08-24T08:20:57.968Z,19.40
2018-08-24T08:23:27.111Z,19.50
2018-08-24T08:25:56.243Z,19.50
2018-08-24T08:28:25.224Z,19.50
2018-08-24T08:30:54.199Z,19.50
2018-08-24T08:33:23.522Z,19.60
2018-08-24T08:35:52.609Z,19.60
2018-08-24T08:38:21.653Z,19.70
2018-08-24T08:40:50.535Z,19.60
2018-08-24T08:43:19.614Z,19.70
2018-08-24T08:45:48.953Z,19.70
2018-08-24T08:48:18.254Z,19.60
2018-08-24T08:50:47.416Z,19.60
2018-08-24T08:53:16.358Z,19.50
2018-08-24T08:55:45.380Z,19.60
2018-08-24T08:58:15.089Z,19.70
2018-08-24T09:00:44.235Z,19.90
2018-08-24T09:03:13.258Z,20.00
2018-08-24T09:05:42.153Z,20.20
2018-08-24T09:08:11.394Z,20.20
2018-08-24T09:10:41.550Z,20.20
2018-08-24T09:13:10.693Z,20.20
2018-08-24T09:15:39.839Z,20.40
2018-08-24T09:18:14.018Z,20.50
2018-08-24T09:20:48.275Z,20.40
2018-08-24T09:23:22.350Z,20.30
2018-08-24T09:25:56.715Z,20.30
2018-08-24T09:28:35.949Z,20.30
2018-08-24T09:31:12.564Z,20.20
2018-08-24T09:33:41.517Z,20.00
2018-08-24T09:36:16.063Z,19.70
2018-08-24T09:38:45.300Z,19.90
2018-08-24T09:41:14.387Z,20.20
2018-08-24T09:43:48.709Z,20.30
2018-08-24T09:46:17.709Z,20.60
2018-08-24T09:48:52.232Z,21.00
2018-08-24T09:51:25.801Z,21.20
2018-08-24T09:54:00.253Z,21.40
2018-08-24T09:56:30.692Z,21.70
2018-08-24T09:59:00.352Z,21.30
2018-08-24T10:01:34.765Z,21.10
2018-08-24T10:04:09.208Z,21.20
2018-08-24T10:06:43.569Z,21.40
2018-08-24T10:09:13.958Z,21.50
2018-08-24T10:11:43.170Z,21.60
2018-08-24T10:14:12.654Z,21.80
2018-08-24T10:16:41.878Z,21.80
2018-08-24T10:19:13.283Z,21.40
2018-08-24T10:21:42.960Z,21.10
2018-08-24T10:24:12.046Z,20.90
2018-08-24T10:26:41.145Z,20.80
2018-08-24T10:29:10.439Z,20.80
2018-08-24T10:31:39.492Z,20.80
2018-08-24T10:34:08.625Z,20.60
2018-08-24T10:36:38.053Z,20.40
2018-08-24T10:39:10.758Z,20.20
2018-08-24T10:41:39.907Z,20.20
2018-08-24T10:44:09.106Z,20.70
2018-08-24T10:46:38.176Z,21.40
2018-08-24T10:49:07.258Z,22.00
2018-08-24T10:51:36.310Z,22.70
2018-08-24T10:54:05.521Z,23.30
2018-08-24T10:56:35.057Z,23.80
2018-08-24T10:59:04.456Z,23.80
2018-08-24T11:01:33.641Z,24.20
2018-08-24T11:04:02.737Z,23.80
2018-08-24T11:06:31.716Z,23.50
2018-08-24T11:09:00.536Z,22.90
2018-08-24T11:11:29.522Z,22.40
2018-08-24T11:13:58.397Z,22.10
2018-08-24T11:16:27.254Z,22.20
2018-08-24T11:18:56.266Z,22.80
2018-08-24T11:21:25.133Z,23.10
2018-08-24T11:23:54.138Z,22.80
2018-08-24T11:26:23.183Z,22.10
2018-08-24T11:28:52.452Z,22.30
2018-08-24T11:31:21.595Z,23.10
2018-08-24T11:33:50.661Z,23.50
2018-08-24T11:36:19.673Z,24.00
2018-08-24T11:38:49.719Z,24.40
2018-08-24T11:41:18.962Z,24.70
2018-08-24T11:43:47.859Z,25.20
2018-08-24T11:46:17.852Z,24.90
2018-08-24T11:48:46.774Z,24.20
2018-08-24T11:51:15.884Z,23.70
2018-08-24T11:53:44.779Z,23.00
2018-08-24T11:56:13.803Z,23.30
2018-08-24T11:58:42.841Z,23.80
2018-08-24T12:01:11.761Z,24.20
2018-08-24T12:03:40.825Z,25.10
2018-08-24T12:06:09.775Z,25.20
2018-08-24T12:08:38.878Z,24.80
2018-08-24T12:11:08.114Z,24.80
2018-08-24T12:13:37.386Z,25.00
2018-08-24T12:16:06.472Z,24.90
2018-08-24T12:18:35.560Z,24.90
2018-08-24T12:21:04.894Z,25.30
2018-08-24T12:23:34.059Z,26.10
2018-08-24T12:26:03.086Z,26.60
2018-08-24T12:28:32.109Z,25.50
2018-08-24T12:31:01.324Z,24.90
2018-08-24T12:33:30.439Z,24.60
2018-08-24T12:36:00.507Z,24.40
2018-08-24T12:38:29.771Z,23.90
2018-08-24T12:40:58.997Z,23.50
2018-08-24T12:43:35.088Z,23.50
2018-08-24T12:46:04.388Z,24.00
2018-08-24T12:48:33.814Z,24.40
2018-08-24T12:51:02.882Z,24.60
2018-08-24T12:53:32.126Z,24.70
2018-08-24T12:56:01.004Z,24.70
2018-08-24T12:58:30.031Z,25.60
2018-08-24T13:00:59.248Z,26.20
2018-08-24T13:03:28.281Z,26.20
2018-08-24T13:05:57.391Z,25.80
2018-08-24T13:08:26.615Z,25.60
2018-08-24T13:10:55.632Z,25.80
2018-08-24T13:13:24.565Z,26.00
2018-08-24T13:15:53.550Z,26.10
2018-08-24T13:18:22.757Z,26.10
2018-08-24T13:20:51.805Z,26.10
2018-08-24T13:23:20.733Z,26.00
2018-08-24T13:25:49.636Z,25.50
2018-08-24T13:28:19.007Z,25.50
2018-08-24T13:30:48.168Z,25.60
2018-08-24T13:33:17.249Z,25.50
2018-08-24T13:35:46.319Z,25.30
2018-08-24T13:38:15.279Z,25.20
2018-08-24T13:40:44.206Z,24.90
2018-08-24T13:43:13.245Z,24.50
2018-08-24T13:45:42.192Z,24.10
2018-08-24T13:48:11.378Z,24.00
2018-08-24T13:50:40.359Z,23.80
2018-08-24T13:53:09.238Z,23.70
2018-08-24T13:55:38.311Z,23.90
2018-08-24T13:58:07.340Z,24.30
2018-08-24T14:00:36.338Z,24.50
2018-08-24T14:03:05.297Z,24.50
2018-08-24T14:05:35.438Z,24.30
2018-08-24T14:08:04.572Z,23.90
2018-08-24T14:10:33.550Z,23.60
2018-08-24T14:13:02.490Z,23.30
2018-08-24T14:15:31.520Z,23.10
2018-08-24T14:18:01.942Z,23.20
2018-08-24T14:20:31.899Z,23.40
2018-08-24T14:23:01.190Z,23.50
2018-08-24T14:25:30.553Z,23.50
2018-08-24T14:27:59.354Z,23.50
2018-08-24T14:30:28.221Z,23.30
2018-08-24T14:32:57.574Z,23.10
2018-08-24T14:35:26.541Z,23.00
2018-08-24T14:37:55.493Z,23.10
2018-08-24T14:40:25.414Z,23.20
2018-08-24T14:42:54.491Z,23.40
2018-08-24T14:45:23.964Z,23.80
2018-08-24T14:47:52.931Z,24.10
2018-08-24T14:50:21.794Z,24.20
2018-08-24T14:52:50.907Z,24.00
2018-08-24T14:55:20.880Z,23.90
2018-08-24T14:57:49.953Z,23.70
2018-08-24T15:00:19.021Z,23.50
2018-08-24T15:02:47.822Z,23.50
2018-08-24T15:05:16.758Z,23.40
2018-08-24T15:07:45.666Z,23.30
2018-08-24T15:10:14.963Z,23.20
2018-08-24T15:12:43.841Z,23.40
2018-08-24T15:15:12.675Z,23.90
2018-08-24T15:17:41.576Z,24.40
2018-08-24T15:20:10.583Z,24.60
2018-08-24T15:22:39.444Z,24.70
2018-08-24T15:25:08.446Z,24.40
2018-08-24T15:27:37.258Z,24.10
2018-08-24T15:30:06.570Z,24.00
2018-08-24T15:32:35.551Z,23.80
2018-08-24T15:35:04.571Z,23.60
2018-08-24T15:37:33.777Z,23.20
2018-08-24T15:40:03.216Z,23.00
2018-08-24T15:42:32.936Z,22.90
2018-08-24T15:45:01.775Z,22.90
2018-08-24T15:47:30.619Z,22.80
2018-08-24T15:49:59.463Z,22.70
2018-08-24T15:52:28.290Z,22.60
2018-08-24T15:54:57.224Z,22.50
2018-08-24T15:57:27.097Z,22.50
2018-08-24T15:59:56.110Z,22.30
2018-08-24T16:02:28.732Z,22.20
2018-08-24T16:04:57.805Z,22.20
2018-08-24T16:07:26.688Z,22.10
2018-08-24T16:09:56.415Z,21.90
2018-08-24T16:12:26.204Z,21.80
2018-08-24T16:14:55.156Z,21.70
2018-08-24T16:17:24.191Z,21.70
2018-08-24T16:19:53.052Z,21.80
2018-08-24T16:22:21.838Z,21.80
2018-08-24T16:24:50.763Z,21.60
2018-08-24T16:27:23.278Z,21.60
2018-08-24T16:29:54.032Z,21.60
2018-08-24T16:32:23.036Z,21.40
2018-08-24T16:34:52.247Z,21.20
2018-08-24T16:37:21.297Z,21.20
2018-08-24T16:39:50.368Z,21.20
2018-08-24T16:42:19.211Z,21.10
2018-08-24T16:44:48.134Z,21.10
2018-08-24T16:47:16.977Z,21.10
2018-08-24T16:49:45.863Z,21.00
2018-08-24T16:52:14.706Z,20.90
2018-08-24T16:54:43.478Z,20.90
2018-08-24T16:57:13.804Z,20.70
2018-08-24T16:59:42.919Z,20.60
2018-08-24T17:02:11.844Z,20.50
2018-08-24T17:04:40.722Z,20.50
2018-08-24T17:07:09.593Z,20.50
2018-08-24T17:09:45.001Z,20.40
2018-08-24T17:12:13.817Z,20.30
2018-08-24T17:14:42.526Z,20.20
2018-08-24T17:17:11.497Z,20.20
2018-08-24T17:19:40.379Z,20.20
2018-08-24T17:22:09.238Z,20.20
2018-08-24T17:24:38.042Z,20.10
2018-08-24T17:27:06.906Z,20.10
2018-08-24T17:29:35.938Z,20.00
2018-08-24T17:32:04.711Z,19.90
2018-08-24T17:34:33.534Z,19.80
2018-08-24T17:37:02.667Z,19.80
2018-08-24T17:39:31.406Z,19.80
2018-08-24T17:42:00.249Z,19.80
2018-08-24T17:44:29.092Z,19.70
2018-08-24T17:46:57.972Z,19.70
2018-08-24T17:49:26.748Z,19.70
2018-08-24T17:51:55.602Z,19.70
2018-08-24T17:54:24.591Z,19.70
2018-08-24T17:56:53.429Z,19.60
2018-08-24T17:59:22.446Z,19.50
2018-08-24T18:01:51.290Z,19.50
2018-08-24T18:04:20.178Z,19.50
2018-08-24T18:06:49.096Z,19.40
2018-08-24T18:09:18.144Z,19.40
2018-08-24T18:11:46.882Z,19.30
2018-08-24T18:14:15.697Z,19.30
2018-08-24T18:16:44.551Z,19.30
2018-08-24T18:19:13.253Z,19.20
2018-08-24T18:21:42.097Z,19.20
2018-08-24T18:24:10.945Z,19.20
2018-08-24T18:26:39.676Z,19.20
2018-08-24T18:29:08.675Z,19.10
2018-08-24T18:31:37.673Z,19.10
2018-08-24T18:34:06.690Z,19.00
2018-08-24T18:36:35.461Z,19.00
2018-08-24T18:39:08.478Z,19.00
2018-08-24T18:41:37.301Z,19.00
2018-08-24T18:44:06.340Z,18.90
2018-08-24T18:46:35.213Z,18.90
2018-08-24T18:49:04.046Z,18.90
2018-08-24T18:51:32.821Z,18.80
2018-08-24T18:54:01.650Z,18.80
2018-08-24T18:56:30.604Z,18.80
2018-08-24T18:58:59.439Z,18.80
2018-08-24T19:01:28.192Z,18.70
2018-08-24T19:03:57.066Z,18.70
2018-08-24T19:06:26.875Z,18.80
2018-08-24T19:08:55.693Z,18.70
2018-08-24T19:11:29.817Z,18.70
2018-08-24T19:13:58.759Z,18.70
2018-08-24T19:16:27.540Z,18.60
2018-08-24T19:19:01.634Z,18.60
2018-08-24T19:21:35.636Z,18.70
2018-08-24T19:24:04.436Z,18.70
2018-08-24T19:26:33.256Z,18.70
2018-08-24T19:29:07.311Z,18.70
2018-08-24T19:31:36.149Z,18.60
2018-08-24T19:34:05.123Z,18.70
2018-08-24T19:36:33.918Z,18.60
2018-08-24T19:39:02.768Z,18.60
2018-08-24T19:41:36.877Z,18.60
2018-08-24T19:44:05.954Z,18.60
2018-08-24T19:46:34.856Z,18.60
2018-08-24T19:49:09.063Z,18.60
2018-08-24T19:51:37.844Z,18.60
2018-08-24T19:54:06.698Z,18.60
2018-08-24T19:56:35.686Z,18.60
2018-08-24T19:59:06.454Z,18.50
2018-08-24T20:01:37.980Z,18.60
2018-08-24T20:04:13.704Z,18.50
2018-08-24T20:06:47.897Z,18.50
2018-08-24T20:09:22.140Z,18.50
2018-08-24T20:11:52.018Z,18.50
2018-08-24T20:14:26.315Z,18.50
2018-08-24T20:17:58.490Z,18.40
2018-08-24T20:20:27.388Z,18.40
2018-08-24T20:22:56.238Z,18.40
2018-08-24T20:25:25.198Z,18.40
2018-08-24T20:27:53.907Z,18.40
2018-08-24T20:30:22.627Z,18.30
2018-08-24T20:32:51.408Z,18.30
2018-08-24T20:35:20.338Z,18.30
2018-08-24T20:37:49.255Z,18.20
2018-08-24T20:40:18.107Z,18.20
2018-08-24T20:42:46.952Z,18.20
2018-08-24T20:45:15.781Z,18.10
2018-08-24T20:47:44.661Z,18.10
2018-08-24T20:50:13.351Z,18.00
2018-08-24T20:52:42.264Z,18.00
2018-08-24T20:55:10.991Z,18.00
2018-08-24T20:57:39.791Z,18.00
2018-08-24T21:00:08.549Z,17.90
2018-08-24T21:02:37.378Z,17.90
2018-08-24T21:05:06.484Z,17.90
2018-08-24T21:07:35.181Z,17.90
2018-08-24T21:10:04.291Z,17.90
2018-08-24T21:12:33.266Z,17.80
2018-08-24T21:15:02.212Z,17.80
2018-08-24T21:17:30.957Z,17.80
2018-08-24T21:19:59.761Z,17.80
2018-08-24T21:22:28.481Z,17.70
2018-08-24T21:24:57.375Z,17.70
2018-08-24T21:27:27.006Z,17.70
2018-08-24T21:29:55.751Z,17.60
2018-08-24T21:32:24.511Z,17.60
2018-08-24T21:34:53.228Z,17.50
2018-08-24T21:37:22.101Z,17.50
2018-08-24T21:39:51.136Z,17.50
2018-08-24T21:42:19.881Z,17.40
2018-08-24T21:44:48.601Z,17.40
2018-08-24T21:47:17.419Z,17.40
2018-08-24T21:49:46.145Z,17.40
2018-08-24T21:52:14.897Z,17.30
2018-08-24T21:54:43.733Z,17.30
2018-08-24T21:57:12.391Z,17.30
2018-08-24T21:59:41.270Z,17.30
2018-08-24T22:02:10.136Z,17.30
2018-08-24T22:04:39.056Z,17.20
2018-08-24T22:07:08.214Z,17.20
2018-08-24T22:09:36.940Z,17.20
2018-08-24T22:12:05.659Z,17.20
2018-08-24T22:14:34.481Z,17.20
2018-08-24T22:17:03.219Z,17.20
2018-08-24T22:19:32.015Z,17.20
2018-08-24T22:22:01.386Z,17.10
2018-08-24T22:24:30.084Z,17.10
2018-08-24T22:26:58.883Z,17.10
2018-08-24T22:29:27.617Z,17.10
2018-08-24T22:31:56.301Z,17.00
2018-08-24T22:34:25.140Z,17.00
2018-08-24T22:36:54.137Z,17.00
2018-08-24T22:39:23.130Z,17.00
2018-08-24T22:41:52.083Z,16.90
2018-08-24T22:44:21.713Z,16.90
2018-08-24T22:46:50.416Z,16.90
2018-08-24T22:49:19.139Z,16.90
2018-08-24T22:51:47.865Z,16.90
2018-08-24T22:54:16.556Z,16.90
2018-08-24T22:56:45.342Z,16.90
2018-08-24T22:59:14.221Z,16.90
2018-08-24T23:01:43.006Z,16.80
2018-08-24T23:04:11.820Z,16.80
2018-08-24T23:06:41.490Z,16.80
2018-08-24T23:09:11.013Z,16.90
2018-08-24T23:11:39.917Z,16.90
2018-08-24T23:14:08.786Z,16.80
2018-08-24T23:16:37.665Z,16.90
2018-08-24T23:19:06.480Z,16.80
2018-08-24T23:21:35.219Z,16.80
2018-08-24T23:24:04.946Z,16.80
2018-08-24T23:26:33.653Z,16.80
2018-08-24T23:29:02.259Z,16.80
2018-08-24T23:31:31.000Z,16.80
2018-08-24T23:33:59.679Z,16.80
2018-08-24T23:36:28.453Z,16.80
2018-08-24T23:38:57.157Z,16.80
2018-08-24T23:41:25.880Z,16.80
2018-08-24T23:43:54.864Z,16.80
2018-08-24T23:46:23.740Z,16.80
2018-08-24T23:48:52.471Z,16.80
2018-08-24T23:51:21.234Z,16.80
2018-08-24T23:53:49.913Z,16.80
2018-08-24T23:56:18.641Z,16.80
2018-08-24T23:58:47.349Z,16.80
